createdAt,value
2018-07-15T00:01:21.964Z,21.10
2018-07-15T00:03:51.618Z,21.10
2018-07-15T00:06:20.813Z,21.00
2018-07-15T00:08:50.097Z,21.00
2018-07-15T00:11:19.272Z,20.90
2018-07-15T00:13:48.468Z,20.90
2018-07-15T00:16:17.757Z,20.80
2018-07-15T00:18:46.997Z,20.80
2018-07-15T00:21:16.204Z,20.70
2018-07-15T00:23:45.365Z,20.70
2018-07-15T00:26:14.556Z,20.80
2018-07-15T00:28:43.765Z,20.80
2018-07-15T00:31:12.956Z,20.90
2018-07-15T00:33:42.300Z,20.80
2018-07-15T00:36:11.903Z,20.80
2018-07-15T00:38:41.169Z,20.80
2018-07-15T00:41:10.408Z,20.70
2018-07-15T00:43:39.632Z,20.60
2018-07-15T00:46:08.801Z,20.60
2018-07-15T00:48:38.106Z,20.60
2018-07-15T00:51:07.297Z,20.60
2018-07-15T00:53:36.552Z,20.60
2018-07-15T00:56:05.746Z,20.60
2018-07-15T00:58:34.956Z,20.70
2018-07-15T01:01:04.429Z,20.60
2018-07-15T01:03:34.952Z,20.60
2018-07-15T01:06:04.253Z,20.50
2018-07-15T01:08:34.448Z,20.50
2018-07-15T01:11:03.667Z,20.50
2018-07-15T01:13:32.876Z,20.50
2018-07-15T01:16:02.070Z,20.50
2018-07-15T01:18:31.532Z,20.50
2018-07-15T01:21:00.744Z,20.50
2018-07-15T01:23:30.050Z,20.50
2018-07-15T01:25:59.270Z,20.40
2018-07-15T01:28:28.531Z,20.40
2018-07-15T01:30:57.745Z,20.40
2018-07-15T01:33:26.941Z,20.40
2018-07-15T01:35:56.202Z,20.40
2018-07-15T01:38:25.503Z,20.40
2018-07-15T01:40:55.051Z,20.40
2018-07-15T01:43:24.243Z,20.30
2018-07-15T01:45:53.399Z,20.30
2018-07-15T01:48:22.596Z,20.40
2018-07-15T01:50:51.801Z,20.30
2018-07-15T01:53:21.069Z,20.30
2018-07-15T01:55:50.237Z,20.30
2018-07-15T01:58:19.437Z,20.20
2018-07-15T02:00:48.652Z,20.20
2018-07-15T02:03:17.832Z,20.20
2018-07-15T02:05:47.051Z,20.30
2018-07-15T02:08:16.245Z,20.30
2018-07-15T02:10:45.493Z,20.30
2018-07-15T02:13:14.713Z,20.20
2018-07-15T02:15:43.919Z,20.30
2018-07-15T02:18:13.119Z,20.30
2018-07-15T02:20:42.489Z,20.30
2018-07-15T02:23:11.729Z,20.20
2018-07-15T02:25:40.976Z,20.10
2018-07-15T02:28:10.172Z,20.10
2018-07-15T02:30:39.375Z,20.10
2018-07-15T02:33:08.569Z,20.10
2018-07-15T02:35:37.774Z,20.10
2018-07-15T02:38:06.961Z,20.10
2018-07-15T02:40:36.169Z,20.20
2018-07-15T02:43:05.818Z,20.10
2018-07-15T02:45:35.042Z,20.20
2018-07-15T02:48:04.255Z,20.20
2018-07-15T02:50:33.476Z,20.20
2018-07-15T02:53:02.661Z,20.20
2018-07-15T02:55:31.864Z,20.10
2018-07-15T02:58:01.081Z,20.10
2018-07-15T03:00:30.365Z,20.10
2018-07-15T03:03:00.561Z,20.10
2018-07-15T03:05:29.747Z,20.10
2018-07-15T03:07:58.954Z,20.00
2018-07-15T03:10:28.176Z,20.10
2018-07-15T03:12:57.384Z,20.00
2018-07-15T03:15:26.752Z,19.90
2018-07-15T03:17:55.922Z,20.00
2018-07-15T03:20:25.205Z,20.00
2018-07-15T03:22:54.422Z,20.00
2018-07-15T03:25:23.615Z,20.10
2018-07-15T03:27:52.812Z,20.20
2018-07-15T03:30:22.112Z,20.10
2018-07-15T03:32:51.345Z,20.00
2018-07-15T03:35:20.541Z,20.00
2018-07-15T03:37:49.745Z,19.90
2018-07-15T03:40:19.001Z,19.90
2018-07-15T03:42:48.208Z,19.90
2018-07-15T03:45:17.402Z,19.80
2018-07-15T03:47:46.771Z,19.80
2018-07-15T03:50:16.110Z,19.90
2018-07-15T03:52:45.329Z,19.90
2018-07-15T03:55:14.541Z,19.90
2018-07-15T03:57:43.737Z,19.90
2018-07-15T04:00:12.968Z,19.90
2018-07-15T04:02:42.212Z,19.90
2018-07-15T04:05:11.425Z,19.80
2018-07-15T04:07:40.657Z,19.90
2018-07-15T04:10:09.856Z,19.90
2018-07-15T04:12:39.224Z,19.90
2018-07-15T04:15:08.432Z,20.00
2018-07-15T04:17:37.720Z,19.90
2018-07-15T04:20:07.125Z,19.90
2018-07-15T04:22:36.323Z,19.80
2018-07-15T04:25:05.598Z,19.70
2018-07-15T04:27:34.798Z,19.70
2018-07-15T04:30:04.096Z,19.60
2018-07-15T04:32:33.292Z,19.60
2018-07-15T04:35:02.525Z,19.60
2018-07-15T04:37:31.717Z,19.70
2018-07-15T04:40:00.960Z,19.70
2018-07-15T04:42:30.152Z,19.80
2018-07-15T04:44:59.351Z,19.80
2018-07-15T04:47:28.545Z,19.80
2018-07-15T04:49:57.742Z,19.80
2018-07-15T04:52:27.235Z,19.80
2018-07-15T04:54:56.450Z,19.80
2018-07-15T04:57:25.784Z,19.90
2018-07-15T04:59:55.145Z,19.90
2018-07-15T05:02:24.335Z,19.90
2018-07-15T05:04:53.569Z,19.90
2018-07-15T05:07:23.214Z,20.00
2018-07-15T05:09:52.449Z,20.00
2018-07-15T05:12:21.677Z,19.90
2018-07-15T05:14:50.888Z,19.90
2018-07-15T05:17:21.009Z,19.90
2018-07-15T05:19:50.273Z,20.00
2018-07-15T05:22:19.469Z,19.90
2018-07-15T05:24:48.731Z,19.80
2018-07-15T05:27:17.961Z,19.80
2018-07-15T05:29:47.160Z,19.80
2018-07-15T05:32:16.363Z,19.70
2018-07-15T05:34:45.559Z,19.70
2018-07-15T05:37:14.819Z,19.70
2018-07-15T05:39:44.048Z,19.80
2018-07-15T05:42:13.250Z,19.80
2018-07-15T05:44:42.553Z,19.80
2018-07-15T05:47:12.129Z,19.70
2018-07-15T05:49:41.478Z,19.60
2018-07-15T05:54:39.694Z,19.80
2018-07-15T05:57:09.098Z,19.80
2018-07-15T05:59:38.529Z,19.70
2018-07-15T06:02:07.857Z,19.70
2018-07-15T06:04:37.129Z,19.70
2018-07-15T06:07:06.696Z,19.80
2018-07-15T06:09:36.887Z,19.90
2018-07-15T06:12:07.766Z,19.80
2018-07-15T06:14:38.285Z,19.80
2018-07-15T06:17:08.485Z,19.80
2018-07-15T06:19:39.297Z,19.90
2018-07-15T06:22:08.669Z,19.80
2018-07-15T06:24:38.112Z,19.80
2018-07-15T06:27:07.399Z,19.80
2018-07-15T06:29:37.308Z,19.90
2018-07-15T06:32:06.845Z,20.00
2018-07-15T06:34:36.120Z,20.20
2018-07-15T06:37:05.405Z,20.30
2018-07-15T06:39:34.777Z,20.40
2018-07-15T06:42:04.136Z,20.50
2018-07-15T06:44:33.481Z,20.50
2018-07-15T06:47:02.793Z,20.60
2018-07-15T06:49:32.166Z,20.60
2018-07-15T06:52:01.413Z,20.60
2018-07-15T06:54:30.755Z,20.60
2018-07-15T06:57:00.116Z,20.70
2018-07-15T06:59:29.450Z,20.70
2018-07-15T07:01:59.209Z,20.70
2018-07-15T07:04:28.664Z,20.70
2018-07-15T07:06:57.969Z,20.70
2018-07-15T07:09:27.451Z,20.80
2018-07-15T07:11:56.817Z,20.80
2018-07-15T07:14:26.174Z,20.80
2018-07-15T07:16:55.690Z,20.80
2018-07-15T07:19:25.091Z,20.80
2018-07-15T07:24:26.380Z,20.80
2018-07-15T07:29:24.723Z,20.80
2018-07-15T07:31:54.093Z,20.80
2018-07-15T07:34:23.845Z,20.90
2018-07-15T07:36:53.233Z,20.80
2018-07-15T07:39:22.631Z,20.80
2018-07-15T07:41:52.049Z,20.90
2018-07-15T07:44:21.388Z,20.90
2018-07-15T07:46:50.758Z,20.90
2018-07-15T07:49:20.260Z,20.90
2018-07-15T07:51:49.565Z,21.00
2018-07-15T07:54:18.889Z,20.90
2018-07-15T07:56:48.188Z,21.00
2018-07-15T07:59:17.624Z,21.00
2018-07-15T08:01:46.980Z,21.00
2018-07-15T08:04:16.402Z,21.00
2018-07-15T08:06:45.812Z,21.00
2018-07-15T08:09:15.232Z,21.00
2018-07-15T08:11:44.614Z,21.10
2018-07-15T08:14:14.078Z,21.10
2018-07-15T08:16:43.482Z,21.10
2018-07-15T08:26:00.130Z,21.10
2018-07-15T08:28:29.615Z,21.10
2018-07-15T08:31:05.830Z,21.10
2018-07-15T08:33:35.227Z,21.20
2018-07-15T08:36:04.604Z,21.20
2018-07-15T08:38:34.503Z,21.20
2018-07-15T08:41:03.776Z,21.30
2018-07-15T08:43:33.049Z,21.30
2018-07-15T08:46:02.536Z,21.30
2018-07-15T08:48:32.031Z,21.30
2018-07-15T08:51:01.323Z,21.30
2018-07-15T08:53:31.656Z,21.40
2018-07-15T08:56:01.975Z,21.40
2018-07-15T08:58:32.456Z,21.40
2018-07-15T09:01:03.383Z,21.50
2018-07-15T09:03:33.687Z,21.50
2018-07-15T09:06:03.807Z,21.50
2018-07-15T09:08:33.356Z,21.50
2018-07-15T09:11:02.760Z,21.50
2018-07-15T09:13:32.196Z,21.50
2018-07-15T09:16:01.586Z,21.50
2018-07-15T09:18:30.977Z,21.50
2018-07-15T09:21:00.332Z,21.50
2018-07-15T09:23:29.708Z,21.60
2018-07-15T09:25:59.130Z,21.60
2018-07-15T09:28:28.632Z,21.60
2018-07-15T09:30:58.210Z,21.60
2018-07-15T09:33:27.585Z,21.60
2018-07-15T09:35:57.048Z,21.60
2018-07-15T09:38:26.574Z,21.70
2018-07-15T09:40:56.153Z,21.70
2018-07-15T09:43:25.708Z,21.70
2018-07-15T09:45:55.032Z,21.70
2018-07-15T09:48:24.345Z,21.70
2018-07-15T09:50:53.792Z,21.70
2018-07-15T09:53:23.098Z,21.70
2018-07-15T09:55:52.471Z,21.80
2018-07-15T09:58:21.936Z,21.80
2018-07-15T10:00:56.019Z,21.80
2018-07-15T10:03:26.530Z,21.80
2018-07-15T10:05:55.957Z,21.80
2018-07-15T10:08:25.341Z,21.90
2018-07-15T10:10:54.778Z,21.90
2018-07-15T10:13:24.111Z,21.90
2018-07-15T10:15:53.444Z,21.90
2018-07-15T10:18:22.727Z,21.90
2018-07-15T10:20:51.976Z,21.90
2018-07-15T10:23:21.237Z,21.90
2018-07-15T10:25:50.575Z,21.90
2018-07-15T10:28:19.885Z,21.90
2018-07-15T10:30:49.201Z,21.90
2018-07-15T10:33:18.569Z,21.90
2018-07-15T10:35:47.854Z,22.00
2018-07-15T10:38:17.545Z,22.00
2018-07-15T10:40:47.074Z,22.00
2018-07-15T10:43:16.421Z,22.00
2018-07-15T10:45:45.781Z,22.00
2018-07-15T10:50:43.965Z,22.00
2018-07-15T10:55:42.083Z,22.00
2018-07-15T10:58:11.449Z,22.00
2018-07-15T11:00:40.805Z,22.00
2018-07-15T11:03:10.185Z,22.00
2018-07-15T11:05:39.540Z,22.00
2018-07-15T11:08:08.871Z,22.10
2018-07-15T11:10:38.441Z,22.10
2018-07-15T11:13:07.910Z,22.10
2018-07-15T11:15:37.356Z,22.10
2018-07-15T11:18:07.181Z,22.10
2018-07-15T11:20:38.302Z,22.10
2018-07-15T11:23:07.911Z,22.10
2018-07-15T11:25:37.328Z,22.10
2018-07-15T11:28:06.796Z,22.10
2018-07-15T11:30:36.335Z,22.20
2018-07-15T11:33:05.663Z,22.20
2018-07-15T11:35:35.057Z,22.20
2018-07-15T11:38:04.375Z,22.20
2018-07-15T11:40:34.227Z,22.20
2018-07-15T11:43:03.517Z,22.30
2018-07-15T11:45:32.965Z,22.30
2018-07-15T11:50:31.312Z,22.30
2018-07-15T11:53:01.187Z,22.30
2018-07-15T11:55:30.585Z,22.30
2018-07-15T11:57:59.871Z,22.30
2018-07-15T12:00:29.375Z,22.30
2018-07-15T12:02:58.788Z,22.30
2018-07-15T12:05:28.185Z,22.30
2018-07-15T12:07:57.554Z,22.30
2018-07-15T12:10:26.903Z,22.40
2018-07-15T12:12:56.246Z,22.40
2018-07-15T12:15:25.596Z,22.40
2018-07-15T12:17:55.015Z,22.40
2018-07-15T12:20:25.563Z,22.40
2018-07-15T12:22:54.962Z,22.40
2018-07-15T12:25:24.658Z,22.40
2018-07-15T12:27:54.053Z,22.40
2018-07-15T12:30:23.534Z,22.40
2018-07-15T12:32:52.866Z,22.40
2018-07-15T12:35:22.288Z,22.40
2018-07-15T12:37:51.688Z,22.40
2018-07-15T12:40:21.072Z,22.50
2018-07-15T12:42:50.474Z,22.50
2018-07-15T12:45:20.053Z,22.50
2018-07-15T12:47:49.403Z,22.50
2018-07-15T12:50:18.833Z,22.50
2018-07-15T12:52:48.189Z,22.50
2018-07-15T12:57:46.682Z,22.50
2018-07-15T13:00:16.015Z,22.50
2018-07-15T13:02:45.405Z,22.50
2018-07-15T13:05:14.679Z,22.50
2018-07-15T13:07:44.088Z,22.50
2018-07-15T13:10:13.658Z,22.50
2018-07-15T13:12:43.120Z,22.50
2018-07-15T13:17:41.362Z,22.50
2018-07-15T13:20:12.816Z,22.50
2018-07-15T13:22:42.276Z,22.50
2018-07-15T13:25:11.883Z,22.50
2018-07-15T13:27:41.419Z,22.50
2018-07-15T13:30:10.819Z,22.50
2018-07-15T13:32:40.292Z,22.50
2018-07-15T13:35:09.827Z,22.50
2018-07-15T13:37:39.166Z,22.50
2018-07-15T13:40:08.946Z,22.50
2018-07-15T13:42:38.413Z,22.50
2018-07-15T13:45:07.797Z,22.50
2018-07-15T13:47:37.124Z,22.50
2018-07-15T13:56:54.109Z,22.50
2018-07-15T13:59:23.509Z,22.50
2018-07-15T14:01:52.825Z,22.50
2018-07-15T14:04:22.153Z,22.50
2018-07-15T14:06:51.540Z,22.50
2018-07-15T14:09:21.079Z,22.50
2018-07-15T14:11:50.606Z,22.50
2018-07-15T14:14:19.959Z,22.50
2018-07-15T14:16:49.264Z,22.50
2018-07-15T14:19:18.633Z,22.50
2018-07-15T14:21:47.970Z,22.50
2018-07-15T14:24:17.600Z,22.50
2018-07-15T14:26:46.990Z,22.50
2018-07-15T14:29:16.455Z,22.60
2018-07-15T14:31:45.892Z,22.60
2018-07-15T14:34:15.765Z,22.60
2018-07-15T14:36:45.122Z,22.60
2018-07-15T14:39:14.644Z,22.60
2018-07-15T14:41:44.017Z,22.60
2018-07-15T14:44:13.483Z,22.60
2018-07-15T14:46:42.851Z,22.60
2018-07-15T14:49:12.340Z,22.60
2018-07-15T14:51:41.715Z,22.60
2018-07-15T14:54:11.027Z,22.60
2018-07-15T14:59:09.133Z,22.60
2018-07-15T15:01:38.506Z,22.60
2018-07-15T15:04:07.858Z,22.60
2018-07-15T15:06:37.217Z,22.60
2018-07-15T15:09:07.828Z,22.60
2018-07-15T15:11:37.136Z,22.60
2018-07-15T15:14:06.508Z,22.60
2018-07-15T15:16:35.884Z,22.60
2018-07-15T15:19:05.376Z,22.60
2018-07-15T15:21:34.809Z,22.60
2018-07-15T15:24:04.127Z,22.60
2018-07-15T15:26:33.497Z,22.60
2018-07-15T15:29:03.212Z,22.60
2018-07-15T15:31:32.555Z,22.60
2018-07-15T15:34:01.975Z,22.60
2018-07-15T15:36:31.277Z,22.60
2018-07-15T15:39:00.888Z,22.60
2018-07-15T15:41:30.224Z,22.60
2018-07-15T15:43:59.521Z,22.60
2018-07-15T15:46:28.925Z,22.60
2018-07-15T15:48:58.450Z,22.60
2018-07-15T15:51:27.798Z,22.60
2018-07-15T15:53:57.109Z,22.60
2018-07-15T15:56:26.505Z,22.60
2018-07-15T15:58:56.059Z,22.60
2018-07-15T16:01:25.368Z,22.60
2018-07-15T16:03:54.678Z,22.60
2018-07-15T16:06:24.170Z,22.60
2018-07-15T16:08:53.568Z,22.60
2018-07-15T16:11:23.266Z,22.60
2018-07-15T16:13:52.632Z,22.60
2018-07-15T16:18:50.929Z,22.70
2018-07-15T16:21:20.294Z,22.70
2018-07-15T16:23:49.712Z,22.70
2018-07-15T16:26:19.032Z,22.70
2018-07-15T16:28:48.448Z,22.70
2018-07-15T16:31:17.716Z,22.70
2018-07-15T16:33:47.125Z,22.70
2018-07-15T16:36:16.389Z,22.70
2018-07-15T16:38:45.867Z,22.70
2018-07-15T16:41:15.206Z,22.70
2018-07-15T16:43:44.624Z,22.70
2018-07-15T16:46:13.996Z,22.70
2018-07-15T16:48:43.402Z,22.70
2018-07-15T16:51:12.678Z,22.70
2018-07-15T16:53:42.044Z,22.70
2018-07-15T16:56:11.476Z,22.70
2018-07-15T16:58:40.841Z,22.70
2018-07-15T17:01:10.204Z,22.70
2018-07-15T17:03:39.622Z,22.70
2018-07-15T17:06:08.898Z,22.70
2018-07-15T17:08:38.300Z,22.70
2018-07-15T17:11:08.047Z,22.70
2018-07-15T17:13:37.432Z,22.70
2018-07-15T17:16:06.885Z,22.70
2018-07-15T17:18:36.355Z,22.70
2018-07-15T17:21:05.651Z,22.70
2018-07-15T17:23:35.071Z,22.70
2018-07-15T17:26:04.468Z,22.70
2018-07-15T17:28:33.843Z,22.70
2018-07-15T17:31:03.254Z,22.70
2018-07-15T17:33:32.625Z,22.70
2018-07-15T17:36:02.044Z,22.70
2018-07-15T17:38:31.369Z,22.70
2018-07-15T17:41:00.686Z,22.70
2018-07-15T17:43:30.136Z,22.70
2018-07-15T17:45:59.569Z,22.70
2018-07-15T17:48:29.119Z,22.70
2018-07-15T17:50:58.413Z,22.70
2018-07-15T17:53:27.721Z,22.70
2018-07-15T17:55:57.008Z,22.70
2018-07-15T17:58:26.398Z,22.70
2018-07-15T18:00:55.770Z,22.70
2018-07-15T18:03:25.101Z,22.70
2018-07-15T18:05:54.421Z,22.70
2018-07-15T18:08:23.705Z,22.70
2018-07-15T18:10:52.993Z,22.70
2018-07-15T18:13:22.338Z,22.70
2018-07-15T18:15:51.712Z,22.70
2018-07-15T18:18:21.059Z,22.70
2018-07-15T18:20:50.711Z,22.70
2018-07-15T18:23:20.197Z,22.70
2018-07-15T18:25:49.528Z,22.70
2018-07-15T18:28:18.805Z,22.70
2018-07-15T18:30:48.473Z,22.70
2018-07-15T18:33:17.749Z,22.70
2018-07-15T18:35:47.136Z,22.70
2018-07-15T18:38:16.420Z,22.70
2018-07-15T18:40:45.745Z,22.70
2018-07-15T18:43:15.074Z,22.70
2018-07-15T18:45:44.453Z,22.70
2018-07-15T18:50:42.737Z,22.70
2018-07-15T18:53:12.315Z,22.70
2018-07-15T18:55:41.605Z,22.70
2018-07-15T18:58:10.952Z,22.70
2018-07-15T19:00:40.255Z,22.70
2018-07-15T19:03:09.649Z,22.70
2018-07-15T19:05:38.932Z,22.70
2018-07-15T19:08:08.256Z,22.70
2018-07-15T19:13:06.408Z,22.70
2018-07-15T19:15:35.762Z,22.70
2018-07-15T19:18:05.165Z,22.70
2018-07-15T19:20:34.568Z,22.70
2018-07-15T19:23:03.964Z,22.70
2018-07-15T19:25:33.715Z,22.70
2018-07-15T19:28:03.076Z,22.70
2018-07-15T19:30:32.485Z,22.70
2018-07-15T19:33:01.886Z,22.70
2018-07-15T19:35:31.213Z,22.70
2018-07-15T19:38:00.626Z,22.70
2018-07-15T19:40:30.126Z,22.70
2018-07-15T19:42:59.532Z,22.70
2018-07-15T19:45:28.877Z,22.70
2018-07-15T19:47:58.177Z,22.70
2018-07-15T19:50:27.894Z,22.70
2018-07-15T19:52:57.366Z,22.70
2018-07-15T19:55:26.873Z,22.70
2018-07-15T19:57:56.314Z,22.70
2018-07-15T20:00:25.915Z,22.70
2018-07-15T20:02:55.280Z,22.70
2018-07-15T20:05:24.601Z,22.70
2018-07-15T20:07:54.017Z,22.70
2018-07-15T20:10:23.398Z,22.70
2018-07-15T20:12:53.492Z,22.70
2018-07-15T20:15:22.841Z,22.70
2018-07-15T20:17:52.198Z,22.70
2018-07-15T20:20:21.545Z,22.70
2018-07-15T20:22:50.894Z,22.60
2018-07-15T20:25:20.270Z,22.70
2018-07-15T20:32:48.202Z,22.70
2018-07-15T20:35:17.430Z,22.70
2018-07-15T20:37:46.637Z,22.70
2018-07-15T20:40:15.925Z,22.80
2018-07-15T20:42:45.164Z,22.80
2018-07-15T20:47:43.129Z,22.90
2018-07-15T20:50:12.511Z,22.80
2018-07-15T20:52:41.817Z,22.80
2018-07-15T20:55:11.101Z,22.70
2018-07-15T20:57:40.520Z,22.70
2018-07-15T21:00:09.780Z,22.70
2018-07-15T21:02:39.453Z,22.70
2018-07-15T21:05:08.644Z,22.70
2018-07-15T21:07:37.886Z,22.70
2018-07-15T21:10:07.191Z,22.70
2018-07-15T21:12:36.411Z,22.60
2018-07-15T21:15:05.646Z,22.60
2018-07-15T21:17:34.855Z,22.60
2018-07-15T21:20:04.072Z,22.60
2018-07-15T21:22:33.258Z,22.60
2018-07-15T21:25:02.452Z,22.60
2018-07-15T21:27:31.660Z,22.70
2018-07-15T21:30:00.961Z,22.60
2018-07-15T21:34:59.270Z,22.60
2018-07-15T21:37:28.469Z,22.60
2018-07-15T21:39:58.177Z,22.60
2018-07-15T21:42:27.401Z,22.60
2018-07-15T21:44:56.633Z,22.60
2018-07-15T21:47:25.833Z,22.60
2018-07-15T21:49:55.106Z,22.60
2018-07-15T21:52:24.303Z,22.60
2018-07-15T21:54:53.511Z,22.60
2018-07-15T21:57:22.724Z,22.60
2018-07-15T21:59:51.955Z,22.50
2018-07-15T22:02:21.239Z,22.50
2018-07-15T22:04:50.475Z,22.50
2018-07-15T22:07:30.678Z,22.50
2018-07-15T22:10:10.062Z,22.50
2018-07-15T22:12:39.254Z,22.50
2018-07-15T22:15:08.478Z,22.50
2018-07-15T22:17:37.691Z,22.50
2018-07-15T22:20:06.979Z,22.50
2018-07-15T22:22:36.181Z,22.50
2018-07-15T22:25:06.037Z,22.50
2018-07-15T22:27:35.502Z,22.50
2018-07-15T22:30:04.769Z,22.40
2018-07-15T22:32:34.070Z,22.40
2018-07-15T22:35:03.294Z,22.40
2018-07-15T22:37:32.876Z,22.40
2018-07-15T22:40:02.206Z,22.40
2018-07-15T22:42:31.477Z,22.40
2018-07-15T22:45:00.713Z,22.40
2018-07-15T22:47:30.101Z,22.40
2018-07-15T22:49:59.352Z,22.40
2018-07-15T22:54:57.224Z,22.40
2018-07-15T22:57:26.490Z,22.40
2018-07-15T22:59:55.761Z,22.50
2018-07-15T23:02:24.993Z,22.40
2018-07-15T23:06:02.890Z,22.40
2018-07-15T23:08:33.605Z,22.40
2018-07-15T23:11:02.939Z,22.40
2018-07-15T23:13:32.201Z,22.40
2018-07-15T23:16:01.424Z,22.40
2018-07-15T23:18:30.720Z,22.40
2018-07-15T23:20:59.933Z,22.40
2018-07-15T23:23:29.156Z,22.40
2018-07-15T23:25:58.349Z,22.40
2018-07-15T23:28:27.595Z,22.40
2018-07-15T23:30:56.820Z,22.40
2018-07-15T23:33:26.024Z,22.40
2018-07-15T23:35:55.260Z,22.40
2018-07-15T23:38:24.564Z,22.40
2018-07-15T23:43:22.710Z,22.40
2018-07-15T23:45:51.937Z,22.30
2018-07-15T23:48:21.199Z,22.30
2018-07-15T23:50:50.413Z,22.30
2018-07-15T23:53:19.625Z,22.30
2018-07-15T23:55:48.833Z,22.30
2018-07-15T23:58:18.022Z,22.30
